createdAt,value
2018-09-04T12:41:04.612Z,101115.28
2018-09-04T12:43:33.185Z,101121.17
2018-09-04T12:46:01.503Z,101127.30
2018-09-04T12:48:30.597Z,101126.07
2018-09-04T12:51:00.294Z,101118.58
2018-09-04T12:53:29.206Z,101124.36
2018-09-04T12:55:58.040Z,101122.92
2018-09-04T12:58:26.309Z,101128.45
2018-09-04T13:00:55.321Z,101121.31
2018-09-04T13:03:24.777Z,101128.63
2018-09-04T13:05:53.045Z,101124.16
2018-09-04T13:08:22.543Z,101113.25
2018-09-04T13:10:51.142Z,101131.58
2018-09-04T13:13:19.429Z,101117.02
2018-09-04T13:15:51.611Z,101120.99
2018-09-04T13:18:19.846Z,101121.77
2018-09-04T13:20:48.236Z,101114.19
2018-09-04T13:23:16.519Z,101113.98
2018-09-04T13:25:44.753Z,101113.70
2018-09-04T13:28:13.220Z,101121.94
2018-09-04T13:30:41.620Z,101116.56
2018-09-04T13:33:09.896Z,101111.00
2018-09-04T13:35:38.687Z,101113.41
2018-09-04T13:38:07.204Z,101116.72
2018-09-04T13:40:35.496Z,101114.17
2018-09-04T13:43:03.751Z,101120.75
2018-09-04T13:45:32.008Z,101115.42
2018-09-04T13:48:01.019Z,101115.73
2018-09-04T13:50:29.550Z,101111.56
2018-09-04T13:52:57.759Z,101109.53
2018-09-04T13:55:26.210Z,101109.95
2018-09-04T13:57:54.505Z,101115.06
2018-09-04T14:00:23.475Z,101123.44
2018-09-04T14:02:51.717Z,101119.91
2018-09-04T14:05:19.883Z,101124.66
2018-09-04T14:07:48.320Z,101129.64
2018-09-04T14:10:16.487Z,101134.63
2018-09-04T14:12:44.712Z,101130.08
2018-09-04T14:15:12.946Z,101128.36
2018-09-04T14:17:42.944Z,101134.46
2018-09-04T14:20:11.328Z,101130.72
2018-09-04T14:22:39.579Z,101125.65
2018-09-04T14:25:07.809Z,101133.22
2018-09-04T14:27:35.984Z,101131.16
2018-09-04T14:30:17.340Z,101127.15
2018-09-04T14:32:32.714Z,101127.50
2018-09-04T14:35:01.185Z,101133.52
2018-09-04T14:37:29.398Z,101123.16
2018-09-04T14:39:57.722Z,101121.89
2018-09-04T14:42:25.928Z,101118.80
2018-09-04T14:44:54.250Z,101127.30
2018-09-04T14:47:22.565Z,101123.80
2018-09-04T14:49:50.820Z,101123.70
2018-09-04T14:52:19.362Z,101123.98
2018-09-04T14:54:47.807Z,101124.86
2018-09-04T14:57:16.910Z,101132.86
2018-09-04T14:59:45.542Z,101127.15
2018-09-04T15:02:14.626Z,101119.89
2018-09-04T15:04:42.866Z,101130.05
2018-09-04T15:07:11.087Z,101128.01
2018-09-04T15:09:39.330Z,101130.51
2018-09-04T15:12:07.834Z,101123.40
2018-09-04T15:14:36.071Z,101125.03
2018-09-04T15:17:05.574Z,101128.72
2018-09-04T15:19:34.270Z,101123.36
2018-09-04T15:22:02.640Z,101130.22
2018-09-04T15:24:31.289Z,101132.30
2018-09-04T15:27:00.065Z,101128.33
2018-09-04T15:29:28.433Z,101138.66
2018-09-04T15:31:56.690Z,101138.77
2018-09-04T15:34:24.928Z,101138.68
2018-09-04T15:36:53.309Z,101138.75
2018-09-04T15:39:22.134Z,101131.25
2018-09-04T15:41:53.708Z,101141.51
2018-09-04T15:44:26.958Z,101138.15
2018-09-04T15:46:55.509Z,101150.88
2018-09-04T15:49:56.658Z,101154.46
2018-09-04T15:52:24.930Z,101148.93
2018-09-04T15:54:53.288Z,101144.86
2018-09-04T15:57:21.579Z,101150.75
2018-09-04T15:59:49.738Z,101151.83
2018-09-04T16:02:18.185Z,101151.66
2018-09-04T16:04:46.463Z,101152.68
2018-09-04T16:07:15.318Z,101138.46
2018-09-04T16:09:43.606Z,101152.31
2018-09-04T16:12:11.923Z,101149.28
2018-09-04T16:14:40.451Z,101151.55
2018-09-04T16:17:09.957Z,101146.52
2018-09-04T16:19:38.235Z,101143.97
2018-09-04T16:22:06.545Z,101154.77
2018-09-04T16:24:34.990Z,101149.38
2018-09-04T16:27:03.450Z,101157.42
2018-09-04T16:29:31.927Z,101157.09
2018-09-04T16:32:00.532Z,101156.14
2018-09-04T16:34:28.795Z,101152.26
2018-09-04T16:36:56.963Z,101157.70
2018-09-04T16:39:25.143Z,101158.30
2018-09-04T16:41:53.391Z,101159.70
2018-09-04T16:44:21.618Z,101161.50
2018-09-04T16:46:50.006Z,101165.59
2018-09-04T16:49:22.444Z,101163.09
2018-09-04T16:51:50.901Z,101163.13
2018-09-04T16:54:19.494Z,101168.91
2018-09-04T16:56:47.820Z,101170.72
2018-09-04T16:59:16.176Z,101171.76
2018-09-04T17:01:44.432Z,101173.50
2018-09-04T17:04:12.816Z,101173.55
2018-09-04T17:06:41.979Z,101174.88
2018-09-04T17:09:10.357Z,101167.39
2018-09-04T17:11:38.903Z,101169.17
2018-09-04T17:14:08.096Z,101171.07
2018-09-04T17:16:36.596Z,101165.77
2018-09-04T17:19:05.310Z,101177.29
2018-09-04T17:21:33.616Z,101179.54
2018-09-04T17:24:02.538Z,101180.00
2018-09-04T17:26:30.751Z,101178.68
2018-09-04T17:28:58.996Z,101179.20
2018-09-04T17:31:27.430Z,101178.47
2018-09-04T17:33:55.670Z,101175.77
2018-09-04T17:36:24.220Z,101174.86
2018-09-04T17:38:52.446Z,101183.87
2018-09-04T17:41:20.742Z,101191.41
2018-09-04T17:43:49.120Z,101190.14
2018-09-04T17:46:17.366Z,101192.70
2018-09-04T17:48:47.065Z,101199.81
2018-09-04T17:51:15.684Z,101191.88
2018-09-04T17:53:43.836Z,101197.34
2018-09-04T17:56:12.112Z,101204.54
2018-09-04T17:58:40.395Z,101197.88
2018-09-04T18:01:08.642Z,101201.89
2018-09-04T18:03:36.953Z,101206.36
2018-09-04T18:06:05.219Z,101199.77
2018-09-04T18:08:33.801Z,101205.13
2018-09-04T18:11:03.228Z,101209.56
2018-09-04T18:13:31.443Z,101210.47
2018-09-04T18:16:00.016Z,101214.11
2018-09-04T18:18:28.364Z,101216.32
2018-09-04T18:20:57.194Z,101215.50
2018-09-04T18:23:27.455Z,101222.94
2018-09-04T18:25:56.224Z,101232.73
2018-09-04T18:28:24.664Z,101227.45
2018-09-04T18:30:59.749Z,101230.98
2018-09-04T18:33:28.136Z,101241.13
2018-09-04T18:35:56.438Z,101235.05
2018-09-04T18:38:24.717Z,101242.11
2018-09-04T18:40:54.234Z,101248.30
2018-09-04T18:43:22.637Z,101253.17
2018-09-04T18:45:55.213Z,101255.82
2018-09-04T18:48:24.189Z,101265.52
2018-09-04T18:50:52.669Z,101257.17
2018-09-04T18:53:21.309Z,101262.02
2018-09-04T18:55:49.741Z,101273.02
2018-09-04T18:58:18.587Z,101269.50
2018-09-04T19:00:47.006Z,101277.01
2018-09-04T19:03:16.073Z,101279.64
2018-09-04T19:05:44.620Z,101287.14
2018-09-04T19:08:13.239Z,101287.16
2018-09-04T19:10:41.520Z,101287.14
2018-09-04T19:13:10.382Z,101281.42
2018-09-04T19:15:38.762Z,101292.86
2018-09-04T19:18:07.107Z,101297.28
2018-09-04T19:20:35.295Z,101299.02
2018-09-04T19:23:04.134Z,101308.28
2018-09-04T19:25:32.512Z,101306.53
2018-09-04T19:28:00.746Z,101304.76
2018-09-04T19:30:29.270Z,101309.13
2018-09-04T19:32:58.448Z,101310.01
2018-09-04T19:35:27.103Z,101308.23
2018-09-04T19:37:55.370Z,101319.20
2018-09-04T19:40:23.739Z,101316.09
2018-09-04T19:42:52.068Z,101319.17
2018-09-04T19:45:20.384Z,101326.16
2018-09-04T19:47:49.033Z,101327.03
2018-09-04T19:50:17.299Z,101325.71
2018-09-04T19:52:45.782Z,101327.91
2018-09-04T19:55:14.208Z,101325.70
2018-09-04T19:57:42.404Z,101328.35
2018-09-04T20:00:11.059Z,101326.98
2018-09-04T20:02:39.305Z,101323.44
2018-09-04T20:05:08.167Z,101333.56
2018-09-04T20:07:36.599Z,101331.31
2018-09-04T20:10:04.932Z,101333.08
2018-09-04T20:12:33.292Z,101346.29
2018-09-04T20:15:01.566Z,101347.12
2018-09-04T20:17:30.234Z,101336.56
2018-09-04T20:19:58.500Z,101346.66
2018-09-04T20:22:26.726Z,101345.77
2018-09-04T20:24:54.975Z,101342.20
2018-09-04T20:27:23.354Z,101339.59
2018-09-04T20:29:51.989Z,101351.05
2018-09-04T20:32:20.366Z,101347.46
2018-09-04T20:34:48.836Z,101343.98
2018-09-04T20:37:17.894Z,101349.23
2018-09-04T20:39:46.158Z,101351.76
2018-09-04T20:42:14.728Z,101347.77
2018-09-04T20:44:43.012Z,101354.31
2018-09-04T20:47:13.198Z,101362.28
2018-09-04T20:49:41.731Z,101356.14
2018-09-04T20:52:09.874Z,101365.77
2018-09-04T20:54:38.063Z,101367.56
2018-09-04T20:57:33.047Z,101370.14
2018-09-04T21:00:14.072Z,101368.71
2018-09-04T21:02:56.612Z,101369.59
2018-09-04T21:05:36.183Z,101369.08
2018-09-04T21:08:15.956Z,101369.91
2018-09-04T21:10:44.450Z,101370.80
2018-09-04T21:13:13.637Z,101367.73
2018-09-04T21:15:41.869Z,101367.67
2018-09-04T21:18:10.074Z,101364.20
2018-09-04T21:20:38.323Z,101370.24
2018-09-04T21:23:06.518Z,101374.68
2018-09-04T21:25:34.673Z,101371.61
2018-09-04T21:28:02.906Z,101368.94
2018-09-04T21:30:31.111Z,101372.37
2018-09-04T21:32:59.336Z,101370.64
2018-09-04T21:35:27.555Z,101369.72
2018-09-04T21:37:55.827Z,101370.16
2018-09-04T21:40:24.053Z,101381.12
2018-09-04T21:42:52.351Z,101377.55
2018-09-04T21:45:20.557Z,101374.02
2018-09-04T21:47:48.830Z,101378.42
2018-09-04T21:50:16.985Z,101379.92
2018-09-04T21:52:45.265Z,101378.78
2018-09-04T21:55:14.478Z,101378.36
2018-09-04T21:57:42.602Z,101380.91
2018-09-04T22:00:10.781Z,101381.65
2018-09-04T22:02:39.065Z,101377.68
2018-09-04T22:05:07.316Z,101372.83
2018-09-04T22:07:35.641Z,101373.26
2018-09-04T22:10:03.853Z,101374.55
2018-09-04T22:12:32.260Z,101374.42
2018-09-04T22:15:00.490Z,101374.09
2018-09-04T22:17:28.973Z,101370.14
2018-09-04T22:19:57.273Z,101374.55
2018-09-04T22:22:25.507Z,101374.45
2018-09-04T22:24:53.674Z,101374.50
2018-09-04T22:27:21.809Z,101373.59
2018-09-04T22:29:49.982Z,101372.67
2018-09-04T22:32:18.151Z,101377.77
2018-09-04T22:34:46.353Z,101376.83
2018-09-04T22:37:14.593Z,101372.53
2018-09-04T22:39:42.755Z,101372.50
2018-09-04T22:42:10.919Z,101380.31
2018-09-04T22:44:39.334Z,101377.19
2018-09-04T22:47:07.499Z,101377.18
2018-09-04T22:49:35.685Z,101382.23
2018-09-04T22:52:03.862Z,101376.47
2018-09-04T22:54:32.016Z,101378.75
2018-09-04T22:57:00.274Z,101375.34
2018-09-04T22:59:28.596Z,101374.81
2018-09-04T23:01:56.817Z,101377.41
2018-09-04T23:04:24.930Z,101376.13
2018-09-04T23:06:53.072Z,101375.63
2018-09-04T23:09:21.269Z,101379.98
2018-09-04T23:11:49.414Z,101382.27
2018-09-04T23:14:17.656Z,101381.77
2018-09-04T23:16:45.782Z,101382.67
2018-09-04T23:19:13.969Z,101382.61
2018-09-04T23:21:42.133Z,101380.41
2018-09-04T23:24:10.332Z,101376.50
2018-09-04T23:26:38.587Z,101372.93
2018-09-04T23:29:06.759Z,101377.16
2018-09-04T23:31:35.104Z,101379.78
2018-09-04T23:34:03.399Z,101375.47
2018-09-04T23:36:31.550Z,101376.14
2018-09-04T23:38:59.753Z,101371.73
2018-09-04T23:41:28.877Z,101368.73
2018-09-04T23:43:57.111Z,101368.13
2018-09-04T23:46:25.324Z,101371.12
2018-09-04T23:48:53.667Z,101366.91
2018-09-04T23:51:21.891Z,101373.68
2018-09-04T23:53:50.176Z,101369.00
2018-09-04T23:56:18.438Z,101368.28
2018-09-04T23:58:46.605Z,101367.41
